createdAt,value
2023-03-02T00:00:48.846Z,101948.81
2023-03-02T00:03:18.270Z,101943.63
2023-03-02T00:05:47.679Z,101939.31
2023-03-02T00:08:16.327Z,101944.50
2023-03-02T00:10:45.789Z,101940.16
2023-03-02T00:13:14.166Z,101941.06
2023-03-02T00:15:41.897Z,101947.09
2023-03-02T00:18:09.555Z,101935.81
2023-03-02T00:20:37.163Z,101947.09
2023-03-02T00:23:04.819Z,101947.09
2023-03-02T00:25:32.444Z,101944.50
2023-03-02T00:28:01.484Z,101943.63
2023-03-02T00:30:29.253Z,101937.59
2023-03-02T00:32:58.410Z,101945.34
2023-03-02T00:35:26.959Z,101938.41
2023-03-02T00:37:54.690Z,101941.06
2023-03-02T00:40:22.400Z,101936.69
2023-03-02T00:42:50.076Z,101935.84
2023-03-02T00:45:19.316Z,101942.75
2023-03-02T00:47:46.969Z,101935.81
2023-03-02T00:50:14.794Z,101940.16
2023-03-02T00:52:42.476Z,101939.28
2023-03-02T00:55:10.873Z,101941.91
2023-03-02T00:57:38.529Z,101940.16
2023-03-02T01:00:07.527Z,101947.09
2023-03-02T01:02:43.866Z,101946.22
2023-03-02T01:05:11.745Z,101944.50
2023-03-02T01:07:39.448Z,101941.03
2023-03-02T01:10:08.212Z,101941.88
2023-03-02T01:12:35.919Z,101931.50
2023-03-02T01:15:04.341Z,101935.81
2023-03-02T01:17:32.034Z,101932.34
2023-03-02T01:20:01.077Z,101928.88
2023-03-02T01:22:28.732Z,101930.59
2023-03-02T01:24:56.371Z,101929.72
2023-03-02T01:27:24.008Z,101928.88
2023-03-02T01:29:52.031Z,101921.06
2023-03-02T01:32:19.742Z,101920.22
2023-03-02T01:34:47.472Z,101919.34
2023-03-02T01:37:16.540Z,101918.47
2023-03-02T01:39:44.196Z,101907.22
2023-03-02T01:42:11.879Z,101917.59
2023-03-02T01:44:42.713Z,101908.09
2023-03-02T01:47:19.524Z,101897.63
2023-03-02T01:49:51.129Z,101899.41
2023-03-02T01:52:20.649Z,101888.16
2023-03-02T01:54:50.116Z,101892.41
2023-03-02T01:57:22.439Z,101897.69
2023-03-02T01:59:51.881Z,101888.09
2023-03-02T02:02:19.620Z,101889.03
2023-03-02T02:04:48.994Z,101884.63
2023-03-02T02:07:17.017Z,101892.47
2023-03-02T02:09:48.104Z,101885.50
2023-03-02T02:12:18.015Z,101888.94
2023-03-02T02:14:46.025Z,101882.00
2023-03-02T02:17:14.349Z,101875.94
2023-03-02T02:19:58.192Z,101871.63
2023-03-02T02:22:36.271Z,101873.34
2023-03-02T02:25:10.943Z,101859.47
2023-03-02T02:27:39.947Z,101874.22
2023-03-02T02:30:08.978Z,101873.31
2023-03-02T02:32:38.981Z,101869.91
2023-03-02T02:35:11.066Z,101873.34
2023-03-02T02:37:42.716Z,101876.84
2023-03-02T02:40:17.069Z,101867.28
2023-03-02T02:42:47.723Z,101882.06
2023-03-02T02:45:20.546Z,101878.56
2023-03-02T02:47:48.726Z,101876.84
2023-03-02T02:50:20.240Z,101881.22
2023-03-02T02:52:49.256Z,101883.84
2023-03-02T02:55:21.471Z,101884.69
2023-03-02T02:57:51.069Z,101879.47
2023-03-02T03:00:20.868Z,101882.03
2023-03-02T03:02:50.855Z,101889.88
2023-03-02T03:05:18.822Z,101884.59
2023-03-02T03:07:46.543Z,101887.19
2023-03-02T03:10:17.227Z,101888.91
2023-03-02T03:12:44.954Z,101883.66
2023-03-02T03:15:14.465Z,101890.56
2023-03-02T03:17:42.113Z,101885.44
2023-03-02T03:20:11.028Z,101892.34
2023-03-02T03:22:39.284Z,101878.50
2023-03-02T03:25:07.509Z,101875.03
2023-03-02T03:27:35.203Z,101874.06
2023-03-02T03:30:02.875Z,101869.72
2023-03-02T03:32:35.426Z,101870.66
2023-03-02T03:35:03.685Z,101870.56
2023-03-02T03:37:31.395Z,101869.81
2023-03-02T03:39:59.028Z,101881.91
2023-03-02T03:42:26.747Z,101881.00
2023-03-02T03:44:54.433Z,101881.88
2023-03-02T03:47:22.095Z,101883.69
2023-03-02T03:49:51.183Z,101882.81
2023-03-02T03:52:18.815Z,101881.06
2023-03-02T03:54:46.579Z,101881.06
2023-03-02T03:57:14.261Z,101873.13
2023-03-02T03:59:42.024Z,101880.19
2023-03-02T04:02:09.766Z,101883.63
2023-03-02T04:04:37.644Z,101877.53
2023-03-02T04:07:06.629Z,101880.19
2023-03-02T04:09:37.936Z,101884.53
2023-03-02T04:12:07.053Z,101885.38
2023-03-02T04:14:34.996Z,101883.66
2023-03-02T04:17:05.541Z,101886.34
2023-03-02T04:19:33.363Z,101874.19
2023-03-02T04:22:03.964Z,101882.84
2023-03-02T04:24:33.303Z,101870.66
2023-03-02T04:27:00.932Z,101874.13
2023-03-02T04:29:28.691Z,101869.03
2023-03-02T04:31:56.396Z,101868.13
2023-03-02T04:34:25.561Z,101880.28
2023-03-02T04:36:53.502Z,101872.47
2023-03-02T04:39:21.887Z,101871.56
2023-03-02T04:41:50.952Z,101869.88
2023-03-02T04:44:19.936Z,101875.03
2023-03-02T04:46:48.708Z,101874.16
2023-03-02T04:49:18.029Z,101873.34
2023-03-02T04:51:47.784Z,101882.88
2023-03-02T04:54:18.287Z,101873.34
2023-03-02T04:56:51.674Z,101879.38
2023-03-02T04:59:25.951Z,101877.59
2023-03-02T05:01:54.155Z,101868.16
2023-03-02T05:04:22.286Z,101866.41
2023-03-02T05:06:50.005Z,101866.41
2023-03-02T05:09:17.715Z,101866.44
2023-03-02T05:11:45.369Z,101863.84
2023-03-02T05:14:13.698Z,101862.97
2023-03-02T05:16:43.321Z,101855.97
2023-03-02T05:19:12.540Z,101860.31
2023-03-02T05:21:40.328Z,101852.50
2023-03-02T05:24:08.458Z,101857.63
2023-03-02T05:26:36.239Z,101858.47
2023-03-02T05:29:03.989Z,101859.34
2023-03-02T05:31:34.981Z,101857.72
2023-03-02T05:34:05.056Z,101855.09
2023-03-02T05:36:33.174Z,101856.75
2023-03-02T05:39:01.095Z,101849.94
2023-03-02T05:41:29.200Z,101855.13
2023-03-02T05:43:56.926Z,101859.44
2023-03-02T05:46:24.988Z,101845.53
2023-03-02T05:48:52.822Z,101862.84
2023-03-02T05:51:22.274Z,101850.81
2023-03-02T05:53:50.010Z,101857.69
2023-03-02T05:56:17.995Z,101861.03
2023-03-02T05:58:45.696Z,101862.81
2023-03-02T06:01:15.385Z,101873.34
2023-03-02T06:03:43.540Z,101869.88
2023-03-02T06:06:14.038Z,101877.69
2023-03-02T06:08:43.472Z,101873.31
2023-03-02T06:11:11.698Z,101880.25
2023-03-02T06:13:40.133Z,101881.13
2023-03-02T06:16:08.498Z,101888.09
2023-03-02T06:18:36.803Z,101881.13
2023-03-02T06:21:05.578Z,101885.47
2023-03-02T06:23:33.496Z,101880.22
2023-03-02T06:26:08.866Z,101886.31
2023-03-02T06:28:49.810Z,101897.56
2023-03-02T06:31:19.572Z,101888.91
2023-03-02T06:33:47.350Z,101890.69
2023-03-02T06:36:16.951Z,101889.88
2023-03-02T06:38:44.877Z,101892.41
2023-03-02T06:41:13.871Z,101895.91
2023-03-02T06:43:41.571Z,101900.28
2023-03-02T06:46:09.694Z,101899.41
2023-03-02T06:48:37.447Z,101888.91
2023-03-02T06:51:05.686Z,101896.72
2023-03-02T06:53:33.372Z,101901.94
2023-03-02T06:56:01.078Z,101899.31
2023-03-02T06:58:30.116Z,101905.41
2023-03-02T07:00:58.548Z,101898.44
2023-03-02T07:03:26.281Z,101896.69
2023-03-02T07:05:54.171Z,101902.81
2023-03-02T07:08:21.959Z,101899.38
2023-03-02T07:10:49.644Z,101897.56
2023-03-02T07:13:17.388Z,101899.34
2023-03-02T07:15:46.453Z,101896.75
2023-03-02T07:18:14.150Z,101901.97
2023-03-02T07:20:41.814Z,101898.50
2023-03-02T07:23:09.462Z,101903.75
2023-03-02T07:25:37.118Z,101901.03
2023-03-02T07:28:05.212Z,101901.97
2023-03-02T07:30:32.949Z,101908.09
2023-03-02T07:33:02.012Z,101892.44
2023-03-02T07:35:29.693Z,101890.69
2023-03-02T07:37:57.386Z,101897.63
2023-03-02T07:40:25.094Z,101887.19
2023-03-02T07:42:52.778Z,101889.03
2023-03-02T07:45:24.868Z,101890.72
2023-03-02T07:47:52.582Z,101885.50
2023-03-02T07:50:21.766Z,101888.97
2023-03-02T07:52:49.458Z,101891.63
2023-03-02T07:55:17.376Z,101892.50
2023-03-02T07:57:45.104Z,101889.88
2023-03-02T08:00:13.629Z,101887.28
2023-03-02T08:02:41.667Z,101885.56
2023-03-02T08:05:09.922Z,101888.16
2023-03-02T08:07:39.917Z,101882.09
2023-03-02T08:10:08.469Z,101888.16
2023-03-02T08:12:36.188Z,101888.16
2023-03-02T08:15:05.094Z,101895.97
2023-03-02T08:17:32.893Z,101896.84
2023-03-02T08:20:00.593Z,101890.75
2023-03-02T08:22:28.249Z,101892.50
2023-03-02T08:24:57.255Z,101895.97
2023-03-02T08:27:25.031Z,101902.00
2023-03-02T08:29:54.142Z,101890.75
2023-03-02T08:32:21.976Z,101889.91
2023-03-02T08:34:51.624Z,101892.50
2023-03-02T08:37:19.362Z,101902.88
2023-03-02T08:39:47.120Z,101891.63
2023-03-02T08:42:16.297Z,101899.41
2023-03-02T08:44:44.007Z,101899.34
2023-03-02T08:47:11.997Z,101896.63
2023-03-02T08:49:39.798Z,101890.63
2023-03-02T08:52:07.762Z,101887.19
2023-03-02T08:54:35.540Z,101894.19
2023-03-02T08:57:03.525Z,101891.59
2023-03-02T08:59:32.563Z,101900.97
2023-03-02T09:02:00.401Z,101891.50
2023-03-02T09:04:28.152Z,101891.63
2023-03-02T09:06:56.281Z,101894.97
2023-03-02T09:09:24.013Z,101890.72
2023-03-02T09:11:51.760Z,101897.69
2023-03-02T09:14:19.402Z,101900.22
2023-03-02T09:16:49.140Z,101895.06
2023-03-02T09:19:16.821Z,101885.50
2023-03-02T09:21:44.544Z,101891.63
2023-03-02T09:24:12.493Z,101897.69
2023-03-02T09:26:40.222Z,101888.16
2023-03-02T09:29:08.166Z,101889.84
2023-03-02T09:31:37.168Z,101885.41
2023-03-02T09:34:06.939Z,101887.06
2023-03-02T09:36:35.063Z,101888.59
2023-03-02T09:39:08.398Z,101878.13
2023-03-02T09:41:49.186Z,101884.41
2023-03-02T09:44:43.236Z,101876.59
2023-03-02T09:47:29.901Z,101884.19
2023-03-02T09:50:11.455Z,101876.56
2023-03-02T09:52:42.431Z,101882.50
2023-03-02T09:55:15.220Z,101882.41
2023-03-02T09:57:43.309Z,101878.78
2023-03-02T10:00:19.994Z,101874.25
2023-03-02T10:02:50.362Z,101870.09
2023-03-02T10:05:23.192Z,101882.59
2023-03-02T10:07:51.028Z,101890.50
2023-03-02T10:10:26.859Z,101879.25
2023-03-02T10:13:07.048Z,101888.81
2023-03-02T10:15:39.986Z,101886.03
2023-03-02T10:18:16.903Z,101883.31
2023-03-02T10:20:50.948Z,101883.47
2023-03-02T10:23:29.334Z,101876.16
2023-03-02T10:26:02.201Z,101875.53
2023-03-02T10:28:34.137Z,101879.03
2023-03-02T10:31:09.350Z,101876.31
2023-03-02T10:33:38.498Z,101877.84
2023-03-02T10:36:20.781Z,101876.38
2023-03-02T10:38:48.825Z,101867.94
2023-03-02T10:41:19.989Z,101878.41
2023-03-02T10:43:49.520Z,101873.31
2023-03-02T10:46:17.234Z,101873.28
2023-03-02T10:48:49.854Z,101873.25
2023-03-02T10:51:29.644Z,101862.78
2023-03-02T10:54:05.075Z,101868.75
2023-03-02T10:56:33.884Z,101873.59
2023-03-02T10:59:04.049Z,101872.56
2023-03-02T11:01:33.219Z,101874.41
2023-03-02T11:04:02.841Z,101863.19
2023-03-02T11:06:32.212Z,101871.19
2023-03-02T11:09:02.046Z,101879.94
2023-03-02T11:11:30.305Z,101879.22
2023-03-02T11:14:09.376Z,101883.28
2023-03-02T11:16:37.092Z,101881.31
2023-03-02T11:19:06.544Z,101884.66
2023-03-02T11:21:39.377Z,101885.47
2023-03-02T11:24:12.698Z,101881.09
2023-03-02T11:26:46.102Z,101882.25
2023-03-02T11:29:22.876Z,101884.16
2023-03-02T11:31:52.437Z,101873.78
2023-03-02T11:34:25.930Z,101871.00
2023-03-02T11:37:05.377Z,101859.66
2023-03-02T11:39:46.522Z,101860.47
2023-03-02T11:42:23.497Z,101868.56
2023-03-02T11:44:51.293Z,101848.19
2023-03-02T11:47:19.609Z,101865.25
2023-03-02T11:49:53.060Z,101857.22
2023-03-02T11:52:24.292Z,101858.66
2023-03-02T11:54:55.141Z,101858.84
2023-03-02T11:57:26.992Z,101846.25
2023-03-02T11:59:55.204Z,101842.81
2023-03-02T12:02:23.359Z,101843.06
2023-03-02T12:04:51.136Z,101849.00
2023-03-02T12:07:23.872Z,101839.22
2023-03-02T12:10:00.214Z,101840.84
2023-03-02T12:12:42.422Z,101832.91
2023-03-02T12:15:39.615Z,101824.13
2023-03-02T12:18:40.730Z,101828.47
2023-03-02T12:21:10.371Z,101821.22
2023-03-02T12:23:55.503Z,101810.78
2023-03-02T12:26:28.384Z,101803.41
2023-03-02T12:29:02.838Z,101808.06
2023-03-02T12:31:43.949Z,101801.91
2023-03-02T12:34:26.788Z,101804.06
2023-03-02T12:36:56.686Z,101808.44
2023-03-02T12:39:32.746Z,101787.06
2023-03-02T12:42:21.462Z,101788.84
2023-03-02T12:44:52.726Z,101782.75
2023-03-02T12:47:27.211Z,101789.41
2023-03-02T12:49:57.261Z,101786.47
2023-03-02T12:52:29.829Z,101776.97
2023-03-02T12:55:07.342Z,101781.41
2023-03-02T12:57:35.301Z,101777.94
2023-03-02T13:00:04.907Z,101777.94
2023-03-02T13:02:34.477Z,101766.44
2023-03-02T13:05:03.759Z,101758.84
2023-03-02T13:07:36.800Z,101765.50
2023-03-02T13:10:10.958Z,101755.00
2023-03-02T13:12:38.784Z,101754.19
2023-03-02T13:15:15.817Z,101750.84
2023-03-02T13:17:44.488Z,101749.34
2023-03-02T13:20:15.287Z,101744.97
2023-03-02T13:22:43.292Z,101743.00
2023-03-02T13:25:28.653Z,101734.59
2023-03-02T13:28:00.568Z,101744.63
2023-03-02T13:30:30.246Z,101735.31
2023-03-02T13:33:02.727Z,101738.03
2023-03-02T13:35:31.896Z,101732.66
2023-03-02T13:38:03.008Z,101727.56
2023-03-02T13:40:35.719Z,101737.50
2023-03-02T13:43:08.626Z,101722.28
2023-03-02T13:45:36.705Z,101729.16
2023-03-02T13:48:15.682Z,101731.28
2023-03-02T13:50:52.727Z,101731.59
2023-03-02T13:53:20.588Z,101726.84
2023-03-02T13:55:50.015Z,101721.38
2023-03-02T13:58:19.426Z,101710.06
2023-03-02T14:00:47.390Z,101715.56
2023-03-02T14:03:24.339Z,101705.28
2023-03-02T14:05:52.368Z,101710.88
2023-03-02T14:08:20.188Z,101703.47
2023-03-02T14:10:50.465Z,101690.88
2023-03-02T14:13:21.094Z,101697.00
2023-03-02T14:15:50.296Z,101697.56
2023-03-02T14:18:29.021Z,101688.97
2023-03-02T14:20:57.510Z,101692.81
2023-03-02T14:23:25.711Z,101708.72
2023-03-02T14:25:55.813Z,101688.97
2023-03-02T14:28:26.499Z,101692.22
2023-03-02T14:30:56.446Z,101702.38
2023-03-02T14:33:24.554Z,101699.09
2023-03-02T14:35:54.224Z,101691.63
2023-03-02T14:38:22.461Z,101699.69
2023-03-02T14:40:50.362Z,101692.22
2023-03-02T14:43:21.275Z,101693.47
2023-03-02T14:45:48.976Z,101690.38
2023-03-02T14:48:16.996Z,101685.44
2023-03-02T14:50:46.678Z,101686.66
2023-03-02T14:53:17.524Z,101697.06
2023-03-02T14:55:45.290Z,101689.38
2023-03-02T14:58:15.293Z,101678.22
2023-03-02T15:00:45.040Z,101690.47
2023-03-02T15:03:16.648Z,101679.28
2023-03-02T15:05:58.981Z,101678.34
2023-03-02T15:08:28.473Z,101689.25
2023-03-02T15:10:56.169Z,101679.44
2023-03-02T15:13:23.801Z,101674.31
2023-03-02T15:15:53.091Z,101684.63
2023-03-02T15:18:20.810Z,101677.63
2023-03-02T15:20:48.550Z,101686.03
2023-03-02T15:23:16.211Z,101688.47
2023-03-02T15:25:43.876Z,101694.41
2023-03-02T15:28:11.589Z,101689.06
2023-03-02T15:30:39.283Z,101692.13
2023-03-02T15:33:08.386Z,101684.97
2023-03-02T15:35:39.362Z,101695.31
2023-03-02T15:38:07.075Z,101689.69
2023-03-02T15:40:34.796Z,101673.53
2023-03-02T15:43:02.437Z,101673.22
2023-03-02T15:45:30.130Z,101678.47
2023-03-02T15:47:57.856Z,101671.31
2023-03-02T15:50:26.966Z,101672.28
2023-03-02T15:52:56.262Z,101671.84
2023-03-02T15:55:24.109Z,101684.81
2023-03-02T15:57:51.788Z,101681.72
2023-03-02T16:00:20.700Z,101672.97
2023-03-02T16:02:49.630Z,101678.63
2023-03-02T16:05:17.671Z,101672.16
2023-03-02T16:07:46.705Z,101670.63
2023-03-02T16:10:16.435Z,101680.63
2023-03-02T16:12:44.208Z,101690.19
2023-03-02T16:15:12.276Z,101692.00
2023-03-02T16:17:39.995Z,101678.16
2023-03-02T16:20:08.293Z,101681.97
2023-03-02T16:22:36.073Z,101680.22
2023-03-02T16:25:05.687Z,101688.25
2023-03-02T16:27:33.848Z,101681.66
2023-03-02T16:30:01.503Z,101690.38
2023-03-02T16:32:30.120Z,101694.75
2023-03-02T16:34:57.974Z,101691.31
2023-03-02T16:37:25.668Z,101702.78
2023-03-02T16:39:53.407Z,101697.72
2023-03-02T16:42:22.454Z,101707.09
2023-03-02T16:44:51.045Z,101712.38
2023-03-02T16:47:18.737Z,101704.50
2023-03-02T16:49:46.403Z,101703.03
2023-03-02T16:52:14.057Z,101711.66
2023-03-02T16:54:41.727Z,101717.56
2023-03-02T16:57:09.508Z,101721.84
2023-03-02T16:59:38.514Z,101712.44
2023-03-02T17:02:06.180Z,101715.97
2023-03-02T17:04:36.990Z,101708.28
2023-03-02T17:07:04.892Z,101722.13
2023-03-02T17:09:34.767Z,101718.78
2023-03-02T17:12:02.465Z,101723.84
2023-03-02T17:14:30.260Z,101727.31
2023-03-02T17:16:59.277Z,101728.19
2023-03-02T17:19:29.446Z,101715.19
2023-03-02T17:21:58.160Z,101730.91
2023-03-02T17:24:25.861Z,101722.25
2023-03-02T17:26:53.525Z,101734.63
2023-03-02T17:29:21.448Z,101743.19
2023-03-02T17:31:49.139Z,101732.88
2023-03-02T17:34:18.175Z,101738.91
2023-03-02T17:36:46.332Z,101746.75
2023-03-02T17:39:14.000Z,101744.09
2023-03-02T17:41:41.684Z,101747.56
2023-03-02T17:44:09.352Z,101740.75
2023-03-02T17:46:37.155Z,101753.66
2023-03-02T17:49:04.849Z,101745.00
2023-03-02T17:51:33.909Z,101748.47
2023-03-02T17:54:01.619Z,101745.75
2023-03-02T17:56:30.013Z,101747.63
2023-03-02T17:58:59.323Z,101751.13
2023-03-02T18:01:27.774Z,101754.63
2023-03-02T18:03:55.477Z,101755.38
2023-03-02T18:06:23.293Z,101765.75
2023-03-02T18:08:53.019Z,101759.78
2023-03-02T18:11:22.367Z,101758.94
2023-03-02T18:13:50.182Z,101772.81
2023-03-02T18:16:17.947Z,101769.31
2023-03-02T18:18:45.611Z,101776.31
2023-03-02T18:21:13.258Z,101777.16
2023-03-02T18:23:41.939Z,101775.47
2023-03-02T18:26:12.557Z,101771.97
2023-03-02T18:28:41.384Z,101785.84
2023-03-02T18:31:09.494Z,101779.78
2023-03-02T18:33:37.167Z,101785.03
2023-03-02T18:36:05.961Z,101788.50
2023-03-02T18:38:34.485Z,101791.97
2023-03-02T18:41:03.806Z,101786.78
2023-03-02T18:43:35.280Z,101785.03
2023-03-02T18:46:04.284Z,101784.22
2023-03-02T18:48:32.880Z,101794.59
2023-03-02T18:51:00.642Z,101791.16
2023-03-02T18:53:28.426Z,101791.16
2023-03-02T18:55:56.545Z,101792.00
2023-03-02T18:58:25.375Z,101798.94
2023-03-02T19:00:55.473Z,101798.94
2023-03-02T19:03:24.826Z,101799.81
2023-03-02T19:05:57.638Z,101788.56
2023-03-02T19:08:26.793Z,101797.19
2023-03-02T19:10:55.447Z,101802.41
2023-03-02T19:13:23.743Z,101800.66
2023-03-02T19:15:52.740Z,101793.72
2023-03-02T19:18:25.249Z,101790.25
2023-03-02T19:20:54.336Z,101798.91
2023-03-02T19:23:23.392Z,101798.91
2023-03-02T19:25:51.670Z,101797.19
2023-03-02T19:28:21.586Z,101795.44
2023-03-02T19:30:49.906Z,101800.66
2023-03-02T19:33:17.784Z,101798.91
2023-03-02T19:35:46.983Z,101802.38
2023-03-02T19:38:14.663Z,101795.44
2023-03-02T19:40:42.424Z,101804.09
2023-03-02T19:43:10.111Z,101793.72
2023-03-02T19:45:38.101Z,101801.50
2023-03-02T19:48:06.641Z,101798.03
2023-03-02T19:50:34.663Z,101804.09
2023-03-02T19:53:03.744Z,101801.53
2023-03-02T19:55:31.835Z,101809.34
2023-03-02T19:58:02.039Z,101804.97
2023-03-02T20:00:31.295Z,101803.25
2023-03-02T20:02:59.163Z,101809.31
2023-03-02T20:05:28.044Z,101805.84
2023-03-02T20:07:55.904Z,101811.03
2023-03-02T20:10:31.106Z,101811.88
2023-03-02T20:12:59.830Z,101807.56
2023-03-02T20:15:28.122Z,101806.72
2023-03-02T20:17:55.897Z,101808.44
2023-03-02T20:20:26.910Z,101812.78
2023-03-02T20:22:54.680Z,101812.78
2023-03-02T20:25:22.818Z,101811.91
2023-03-02T20:27:52.971Z,101810.19
2023-03-02T20:30:24.176Z,101811.06
2023-03-02T20:32:51.891Z,101819.72
2023-03-02T20:35:20.816Z,101811.94
2023-03-02T20:37:49.112Z,101817.09
2023-03-02T20:40:17.433Z,101816.28
2023-03-02T20:42:45.258Z,101819.72
2023-03-02T20:45:14.690Z,101823.16
2023-03-02T20:47:43.188Z,101823.16
2023-03-02T20:50:15.360Z,101816.25
2023-03-02T20:52:43.244Z,101822.34
2023-03-02T20:55:11.783Z,101824.91
2023-03-02T20:57:39.733Z,101825.72
2023-03-02T21:00:09.290Z,101845.69
2023-03-02T21:02:38.606Z,101834.38
2023-03-02T21:05:07.217Z,101827.44
2023-03-02T21:07:35.752Z,101834.38
2023-03-02T21:10:03.534Z,101824.03
2023-03-02T21:12:33.193Z,101828.34
2023-03-02T21:15:02.072Z,101824.00
2023-03-02T21:17:30.743Z,101836.13
2023-03-02T21:19:59.873Z,101835.25
2023-03-02T21:22:27.693Z,101840.44
2023-03-02T21:24:55.327Z,101836.97
2023-03-02T21:27:23.042Z,101844.81
2023-03-02T21:29:50.795Z,101851.72
2023-03-02T21:32:18.517Z,101840.31
2023-03-02T21:34:46.232Z,101848.16
2023-03-02T21:37:15.275Z,101845.63
2023-03-02T21:39:42.912Z,101843.84
2023-03-02T21:42:10.621Z,101852.59
2023-03-02T21:44:38.259Z,101844.75
2023-03-02T21:47:06.061Z,101838.72
2023-03-02T21:49:33.845Z,101845.69
2023-03-02T21:52:01.576Z,101842.19
2023-03-02T21:54:30.612Z,101845.66
2023-03-02T21:56:58.416Z,101838.72
2023-03-02T21:59:26.816Z,101840.47
2023-03-02T22:01:54.743Z,101834.38
2023-03-02T22:04:22.559Z,101831.81
2023-03-02T22:06:50.289Z,101833.53
2023-03-02T22:09:17.959Z,101829.19
2023-03-02T22:11:47.491Z,101830.91
2023-03-02T22:14:17.664Z,101831.78
2023-03-02T22:16:47.960Z,101835.25
2023-03-02T22:19:26.152Z,101835.22
2023-03-02T22:21:54.525Z,101842.06
2023-03-02T22:24:24.628Z,101840.38
2023-03-02T22:27:00.130Z,101836.06
2023-03-02T22:29:30.655Z,101833.47
2023-03-02T22:32:07.315Z,101835.09
2023-03-02T22:34:37.084Z,101846.44
2023-03-02T22:37:12.076Z,101847.25
2023-03-02T22:39:42.060Z,101848.25
2023-03-02T22:42:15.803Z,101848.09
2023-03-02T22:44:43.479Z,101849.13
2023-03-02T22:47:16.000Z,101846.53
2023-03-02T22:49:43.784Z,101846.53
2023-03-02T22:52:17.401Z,101848.31
2023-03-02T22:54:46.020Z,101839.63
2023-03-02T22:57:30.914Z,101842.19
2023-03-02T23:00:29.980Z,101847.38
2023-03-02T23:02:58.565Z,101839.59
2023-03-02T23:05:28.144Z,101850.91
2023-03-02T23:07:59.389Z,101844.81
2023-03-02T23:10:27.158Z,101847.44
2023-03-02T23:12:56.241Z,101844.84
2023-03-02T23:15:24.058Z,101840.50
2023-03-02T23:17:51.820Z,101844.84
2023-03-02T23:20:19.460Z,101828.38
2023-03-02T23:22:47.113Z,101837.06
2023-03-02T23:25:15.725Z,101842.25
2023-03-02T23:27:43.457Z,101837.91
2023-03-02T23:30:17.691Z,101831.84
2023-03-02T23:32:45.482Z,101837.91
2023-03-02T23:35:13.359Z,101833.59
2023-03-02T23:37:41.020Z,101834.44
2023-03-02T23:40:10.202Z,101830.13
2023-03-02T23:42:38.257Z,101833.59
2023-03-02T23:45:06.943Z,101836.19
2023-03-02T23:47:35.962Z,101836.19
2023-03-02T23:50:08.751Z,101839.66
2023-03-02T23:52:36.457Z,101841.38
2023-03-02T23:55:04.125Z,101843.13
2023-03-02T23:57:31.743Z,101841.38
